createdAt,value
2022-12-29T00:02:11.826Z,5.27
2022-12-29T00:04:38.871Z,5.29
2022-12-29T00:07:07.187Z,5.32
2022-12-29T00:09:35.294Z,5.34
2022-12-29T00:12:03.717Z,5.35
2022-12-29T00:14:49.445Z,5.33
2022-12-29T00:17:16.646Z,5.33
2022-12-29T00:20:04.024Z,5.35
2022-12-29T00:22:49.432Z,5.39
2022-12-29T00:25:35.168Z,5.42
2022-12-29T00:28:20.599Z,5.45
2022-12-29T00:31:06.176Z,5.46
2022-12-29T00:33:53.688Z,5.50
2022-12-29T00:36:29.077Z,5.51
2022-12-29T00:39:21.381Z,5.54
2022-12-29T00:42:12.812Z,5.53
2022-12-29T00:44:39.911Z,5.43
2022-12-29T00:47:06.937Z,5.39
2022-12-29T00:49:34.499Z,5.34
2022-12-29T00:52:08.357Z,5.27
2022-12-29T00:54:38.141Z,5.26
2022-12-29T00:57:07.755Z,5.29
2022-12-29T00:59:40.088Z,5.30
2022-12-29T01:02:07.926Z,5.27
2022-12-29T01:04:35.501Z,5.22
2022-12-29T01:07:02.545Z,5.22
2022-12-29T01:09:47.912Z,5.25
2022-12-29T01:12:15.435Z,5.28
2022-12-29T01:14:42.568Z,5.26
2022-12-29T01:17:09.779Z,5.22
2022-12-29T01:19:36.990Z,5.22
2022-12-29T01:22:04.128Z,5.23
2022-12-29T01:24:31.257Z,5.24
2022-12-29T01:26:58.328Z,5.27
2022-12-29T01:29:25.564Z,5.24
2022-12-29T01:31:52.709Z,5.18
2022-12-29T01:34:19.924Z,5.18
2022-12-29T01:36:46.947Z,5.18
2022-12-29T01:39:14.484Z,5.18
2022-12-29T01:41:41.644Z,5.22
2022-12-29T01:44:48.773Z,5.23
2022-12-29T01:47:39.772Z,5.22
2022-12-29T01:50:21.720Z,5.21
2022-12-29T01:53:00.057Z,5.23
2022-12-29T01:55:30.752Z,5.24
2022-12-29T01:58:02.214Z,5.23
2022-12-29T02:00:31.348Z,5.25
2022-12-29T02:02:58.469Z,5.25
2022-12-29T02:05:53.091Z,5.25
2022-12-29T02:08:24.932Z,5.23
2022-12-29T02:10:52.192Z,5.22
2022-12-29T02:13:25.867Z,5.22
2022-12-29T02:16:39.193Z,5.23
2022-12-29T02:19:44.962Z,5.23
2022-12-29T02:22:46.617Z,5.21
2022-12-29T02:25:48.782Z,5.19
2022-12-29T02:29:10.654Z,5.18
2022-12-29T02:31:55.017Z,5.15
2022-12-29T02:35:35.943Z,5.15
2022-12-29T02:38:21.072Z,5.13
2022-12-29T02:57:34.309Z,5.19
2022-12-29T03:00:09.570Z,5.19
2022-12-29T03:03:12.860Z,5.11
2022-12-29T03:12:50.941Z,4.98
2022-12-29T03:15:44.827Z,4.93
2022-12-29T03:18:20.914Z,4.93
2022-12-29T03:21:03.913Z,4.91
2022-12-29T03:23:33.649Z,4.91
2022-12-29T03:26:05.390Z,4.87
2022-12-29T03:28:38.948Z,4.83
2022-12-29T03:31:09.360Z,4.82
2022-12-29T03:33:39.182Z,4.82
2022-12-29T03:36:11.283Z,4.83
2022-12-29T03:39:18.274Z,4.81
2022-12-29T03:41:47.314Z,4.79
2022-12-29T03:44:14.808Z,4.74
2022-12-29T03:46:41.915Z,4.71
2022-12-29T03:49:09.386Z,4.72
2022-12-29T03:51:36.484Z,4.67
2022-12-29T03:54:05.974Z,4.61
2022-12-29T03:56:33.692Z,4.53
2022-12-29T03:59:03.499Z,4.49
2022-12-29T04:01:39.507Z,4.43
2022-12-29T04:04:08.171Z,4.36
2022-12-29T04:06:36.121Z,4.33
2022-12-29T04:09:07.635Z,4.31
2022-12-29T04:11:40.158Z,4.25
2022-12-29T04:14:07.760Z,4.25
2022-12-29T04:16:36.951Z,4.28
2022-12-29T04:19:06.718Z,4.26
2022-12-29T04:21:36.057Z,4.24
2022-12-29T04:24:03.273Z,4.24
2022-12-29T04:26:32.121Z,4.16
2022-12-29T04:29:07.352Z,4.09
2022-12-29T04:31:47.314Z,3.99
2022-12-29T04:34:15.015Z,3.96
2022-12-29T04:36:42.136Z,3.92
2022-12-29T04:39:09.344Z,3.91
2022-12-29T04:41:38.356Z,3.91
2022-12-29T04:44:08.739Z,3.87
2022-12-29T04:47:01.827Z,3.90
2022-12-29T04:49:51.070Z,3.96
2022-12-29T04:52:40.188Z,3.97
2022-12-29T04:55:10.145Z,3.98
2022-12-29T04:57:37.411Z,4.00
2022-12-29T05:00:07.631Z,4.02
2022-12-29T05:02:38.222Z,4.05
2022-12-29T05:05:06.718Z,4.10
2022-12-29T05:07:36.179Z,4.12
2022-12-29T05:10:03.571Z,4.15
2022-12-29T05:12:35.148Z,4.19
2022-12-29T05:15:04.018Z,4.20
2022-12-29T05:17:31.564Z,4.22
2022-12-29T05:19:58.537Z,4.24
2022-12-29T05:22:26.407Z,4.24
2022-12-29T05:24:55.236Z,4.22
2022-12-29T05:27:23.123Z,4.19
2022-12-29T05:30:07.450Z,4.20
2022-12-29T05:32:35.271Z,4.21
2022-12-29T05:35:02.321Z,4.21
2022-12-29T05:37:30.100Z,4.19
2022-12-29T05:39:57.253Z,4.17
2022-12-29T05:42:24.442Z,4.18
2022-12-29T05:44:56.829Z,4.20
2022-12-29T05:47:32.375Z,4.20
2022-12-29T05:50:20.323Z,4.18
2022-12-29T05:53:05.654Z,4.17
2022-12-29T05:55:32.969Z,4.20
2022-12-29T05:58:00.593Z,4.23
2022-12-29T06:00:27.731Z,4.24
2022-12-29T06:02:58.028Z,4.23
2022-12-29T06:05:51.799Z,4.25
2022-12-29T06:08:19.348Z,4.32
2022-12-29T06:10:48.531Z,4.36
2022-12-29T06:13:15.855Z,4.41
2022-12-29T06:15:45.920Z,4.42
2022-12-29T06:18:19.618Z,4.43
2022-12-29T06:20:47.709Z,4.46
2022-12-29T06:23:17.755Z,4.48
2022-12-29T06:25:44.826Z,4.49
2022-12-29T06:28:12.906Z,4.49
2022-12-29T06:30:39.979Z,4.50
2022-12-29T06:33:09.420Z,4.54
2022-12-29T06:35:36.573Z,4.61
2022-12-29T06:38:04.443Z,4.67
2022-12-29T06:40:31.454Z,4.74
2022-12-29T06:43:11.758Z,4.77
2022-12-29T06:45:46.626Z,4.78
2022-12-29T06:48:13.956Z,4.75
2022-12-29T06:50:40.974Z,4.75
2022-12-29T06:53:08.466Z,4.74
2022-12-29T06:55:35.439Z,4.77
2022-12-29T06:58:02.537Z,4.82
2022-12-29T07:00:29.605Z,4.84
2022-12-29T07:02:59.398Z,4.85
2022-12-29T07:05:28.944Z,4.80
2022-12-29T07:07:56.635Z,4.85
2022-12-29T07:10:24.642Z,4.90
2022-12-29T07:12:51.677Z,5.01
2022-12-29T07:15:19.158Z,4.94
2022-12-29T07:17:47.013Z,4.91
2022-12-29T07:20:14.957Z,4.97
2022-12-29T07:22:42.202Z,5.08
2022-12-29T07:25:10.411Z,5.02
2022-12-29T07:27:37.535Z,5.16
2022-12-29T07:30:06.437Z,5.17
2022-12-29T07:32:36.307Z,5.06
2022-12-29T07:35:06.492Z,5.14
2022-12-29T07:37:36.892Z,5.10
2022-12-29T07:40:05.219Z,5.12
2022-12-29T07:42:33.113Z,5.36
2022-12-29T07:45:01.787Z,5.27
2022-12-29T07:47:36.491Z,5.21
2022-12-29T07:50:04.293Z,5.29
2022-12-29T07:52:31.443Z,5.35
2022-12-29T07:54:58.425Z,5.39
2022-12-29T07:57:31.504Z,5.40
2022-12-29T08:00:01.644Z,5.44
2022-12-29T08:02:40.786Z,5.52
2022-12-29T08:05:10.122Z,5.61
2022-12-29T08:07:37.274Z,5.71
2022-12-29T08:10:04.971Z,5.77
2022-12-29T08:12:32.040Z,5.81
2022-12-29T08:14:59.396Z,5.90
2022-12-29T08:17:26.749Z,5.98
2022-12-29T08:19:55.109Z,6.09
2022-12-29T08:22:22.923Z,6.19
2022-12-29T08:24:49.906Z,6.23
2022-12-29T08:27:20.792Z,6.26
2022-12-29T08:29:49.084Z,6.33
2022-12-29T08:32:17.335Z,6.43
2022-12-29T08:34:44.364Z,6.54
2022-12-29T08:37:12.199Z,6.51
2022-12-29T08:39:39.668Z,6.51
2022-12-29T08:42:07.493Z,6.52
2022-12-29T08:44:34.497Z,6.57
2022-12-29T08:47:01.631Z,6.82
2022-12-29T08:49:28.686Z,6.76
2022-12-29T08:51:55.654Z,6.72
2022-12-29T08:54:22.759Z,6.83
2022-12-29T08:56:50.164Z,6.81
2022-12-29T08:59:18.826Z,6.84
2022-12-29T09:01:48.364Z,6.91
2022-12-29T09:04:17.344Z,7.01
2022-12-29T09:06:46.488Z,7.11
2022-12-29T09:09:14.143Z,7.20
2022-12-29T09:11:41.398Z,7.48
2022-12-29T09:14:08.931Z,7.37
2022-12-29T09:16:36.856Z,7.42
2022-12-29T09:19:04.516Z,7.56
2022-12-29T09:21:31.718Z,7.56
2022-12-29T09:23:58.936Z,7.66
2022-12-29T09:26:26.389Z,7.75
2022-12-29T09:28:53.933Z,7.81
2022-12-29T09:31:21.286Z,7.89
2022-12-29T09:33:48.909Z,7.91
2022-12-29T09:36:16.022Z,7.96
2022-12-29T09:38:43.501Z,7.98
2022-12-29T09:41:30.635Z,8.01
2022-12-29T09:44:26.535Z,8.09
2022-12-29T09:46:57.398Z,8.22
2022-12-29T09:49:33.481Z,8.32
2022-12-29T09:52:15.899Z,8.39
2022-12-29T09:55:02.919Z,8.44
2022-12-29T09:57:37.288Z,8.47
2022-12-29T10:00:13.996Z,8.57
2022-12-29T10:02:45.239Z,8.56
2022-12-29T10:05:35.427Z,8.62
2022-12-29T10:08:39.073Z,8.66
2022-12-29T10:11:33.819Z,8.77
2022-12-29T10:14:27.589Z,8.91
2022-12-29T10:17:23.924Z,8.90
2022-12-29T10:20:33.684Z,8.90
2022-12-29T10:23:38.343Z,8.94
2022-12-29T10:26:13.060Z,9.04
2022-12-29T10:29:04.932Z,9.13
2022-12-29T10:32:04.602Z,9.24
2022-12-29T10:34:38.831Z,9.24
2022-12-29T10:37:18.830Z,9.32
2022-12-29T10:39:56.483Z,9.35
2022-12-29T10:42:38.049Z,9.41
2022-12-29T10:45:06.428Z,9.53
2022-12-29T10:47:43.621Z,9.72
2022-12-29T10:50:14.309Z,9.86
2022-12-29T10:52:42.249Z,9.97
2022-12-29T10:55:16.387Z,10.11
2022-12-29T10:57:47.099Z,10.17
2022-12-29T11:00:21.756Z,10.18
2022-12-29T11:03:40.735Z,10.20
2022-12-29T11:06:16.764Z,10.39
2022-12-29T11:08:53.719Z,10.64
2022-12-29T11:11:49.992Z,11.04
2022-12-29T11:14:22.758Z,11.23
2022-12-29T11:17:07.573Z,11.32
2022-12-29T11:19:40.745Z,11.23
2022-12-29T11:22:29.717Z,11.27
2022-12-29T11:25:11.478Z,11.30
2022-12-29T11:27:38.433Z,11.05
2022-12-29T11:30:25.004Z,10.92
2022-12-29T11:32:54.452Z,11.00
2022-12-29T11:35:41.948Z,11.10
2022-12-29T11:38:36.529Z,11.09
2022-12-29T11:41:06.055Z,11.03
2022-12-29T11:43:36.892Z,10.93
2022-12-29T11:46:05.345Z,10.91
2022-12-29T11:48:42.862Z,10.82
2022-12-29T11:51:12.769Z,10.89
2022-12-29T11:53:45.440Z,10.93
2022-12-29T11:56:17.183Z,10.98
2022-12-29T11:58:45.134Z,10.93
2022-12-29T12:01:40.881Z,10.91
2022-12-29T12:04:19.901Z,10.90
2022-12-29T12:07:31.217Z,10.91
2022-12-29T12:10:07.302Z,10.93
2022-12-29T12:12:53.014Z,10.80
2022-12-29T12:15:29.574Z,10.75
2022-12-29T12:18:11.706Z,10.76
2022-12-29T12:20:52.033Z,10.78
2022-12-29T12:24:00.426Z,10.77
2022-12-29T12:26:40.554Z,10.78
2022-12-29T12:29:21.534Z,10.80
2022-12-29T12:31:55.643Z,10.88
2022-12-29T12:34:52.295Z,10.97
2022-12-29T12:38:04.120Z,11.04
2022-12-29T12:40:39.499Z,10.97
2022-12-29T12:43:51.826Z,10.97
2022-12-29T12:46:45.104Z,10.96
2022-12-29T12:49:38.467Z,10.98
2022-12-29T12:52:39.278Z,10.89
2022-12-29T12:55:33.157Z,10.84
2022-12-29T12:58:51.359Z,10.84
2022-12-29T13:02:02.527Z,10.86
2022-12-29T13:05:07.434Z,10.85
2022-12-29T13:08:01.627Z,11.01
2022-12-29T13:11:00.645Z,11.22
2022-12-29T13:14:14.280Z,11.59
2022-12-29T13:17:11.196Z,12.00
2022-12-29T13:20:23.938Z,12.04
2022-12-29T13:23:16.639Z,11.87
2022-12-29T13:26:42.757Z,11.70
2022-12-29T13:39:18.956Z,11.06
2022-12-29T13:41:52.625Z,10.97
2022-12-29T13:44:28.064Z,10.85
2022-12-29T13:47:01.609Z,10.77
2022-12-29T13:49:29.851Z,10.67
2022-12-29T13:51:59.668Z,10.59
2022-12-29T13:55:19.384Z,10.55
2022-12-29T13:58:05.087Z,10.52
2022-12-29T14:00:59.686Z,10.56
2022-12-29T14:03:53.882Z,10.60
2022-12-29T14:06:42.621Z,10.66
2022-12-29T14:09:57.596Z,10.67
2022-12-29T14:12:45.133Z,10.47
2022-12-29T14:15:23.632Z,10.32
2022-12-29T14:18:42.900Z,10.16
2022-12-29T14:21:31.165Z,10.08
2022-12-29T14:24:55.303Z,10.06
2022-12-29T14:27:45.215Z,10.05
2022-12-29T14:30:47.913Z,10.07
2022-12-29T14:33:16.253Z,10.03
2022-12-29T14:35:47.134Z,9.96
2022-12-29T14:38:23.486Z,9.85
2022-12-29T14:40:51.381Z,9.74
2022-12-29T14:43:27.455Z,9.50
2022-12-29T14:45:59.266Z,9.37
2022-12-29T14:48:44.694Z,9.34
2022-12-29T14:51:40.683Z,9.31
2022-12-29T14:54:42.615Z,9.26
2022-12-29T14:57:34.176Z,9.17
2022-12-29T15:00:05.790Z,9.06
2022-12-29T15:02:42.749Z,9.01
2022-12-29T15:05:27.667Z,9.01
2022-12-29T15:07:57.653Z,8.99
2022-12-29T15:10:27.330Z,8.94
2022-12-29T15:12:56.324Z,8.89
2022-12-29T15:15:29.658Z,8.86
2022-12-29T15:17:57.437Z,8.80
2022-12-29T15:20:32.896Z,8.72
2022-12-29T15:23:04.721Z,8.67
2022-12-29T15:25:32.788Z,8.62
2022-12-29T15:28:06.370Z,8.56
2022-12-29T15:30:34.203Z,8.47
2022-12-29T15:33:01.661Z,8.40
2022-12-29T15:35:37.492Z,8.41
2022-12-29T15:38:40.394Z,8.36
2022-12-29T15:41:21.291Z,8.29
2022-12-29T15:44:03.446Z,8.27
2022-12-29T15:46:32.607Z,8.27
2022-12-29T15:48:59.739Z,8.25
2022-12-29T15:51:38.613Z,8.22
2022-12-29T15:54:07.206Z,8.22
2022-12-29T15:56:34.820Z,8.18
2022-12-29T15:59:02.261Z,8.11
2022-12-29T16:01:37.554Z,8.08
2022-12-29T16:04:07.981Z,8.03
2022-12-29T16:06:37.950Z,7.99
2022-12-29T16:09:36.740Z,7.94
2022-12-29T16:12:08.016Z,7.88
2022-12-29T16:14:44.269Z,7.80
2022-12-29T16:17:17.032Z,7.74
2022-12-29T16:19:52.993Z,7.69
2022-12-29T16:22:35.132Z,7.65
2022-12-29T16:25:14.655Z,7.61
2022-12-29T16:27:43.643Z,7.55
2022-12-29T16:30:33.467Z,7.57
2022-12-29T16:33:03.877Z,7.57
2022-12-29T16:35:41.165Z,7.54
2022-12-29T16:38:22.928Z,7.55
2022-12-29T16:41:04.075Z,7.55
2022-12-29T16:43:38.939Z,7.58
2022-12-29T16:46:24.084Z,7.51
2022-12-29T16:48:54.858Z,7.46
2022-12-29T16:51:32.218Z,7.42
2022-12-29T16:54:00.651Z,7.39
2022-12-29T16:56:31.667Z,7.41
2022-12-29T16:59:10.092Z,7.39
2022-12-29T17:01:40.231Z,7.37
2022-12-29T17:04:11.646Z,7.31
2022-12-29T17:06:39.373Z,7.32
2022-12-29T17:09:23.412Z,7.21
2022-12-29T17:12:01.702Z,7.17
2022-12-29T17:14:58.097Z,7.14
2022-12-29T17:17:45.031Z,7.05
2022-12-29T17:20:18.578Z,6.99
2022-12-29T17:22:46.229Z,6.90
2022-12-29T17:25:19.214Z,6.86
2022-12-29T17:27:55.171Z,6.82
2022-12-29T17:30:31.250Z,6.82
2022-12-29T17:33:04.865Z,6.84
2022-12-29T17:35:32.015Z,6.84
2022-12-29T17:37:59.175Z,6.80
2022-12-29T17:40:29.382Z,6.83
2022-12-29T17:42:58.472Z,6.86
2022-12-29T17:45:31.146Z,6.91
2022-12-29T17:48:02.761Z,6.93
2022-12-29T17:50:31.758Z,6.97
2022-12-29T17:53:03.240Z,7.01
2022-12-29T17:55:37.095Z,6.99
2022-12-29T17:58:34.006Z,7.01
2022-12-29T18:01:03.235Z,7.04
2022-12-29T18:03:35.827Z,7.09
2022-12-29T18:06:06.802Z,7.15
2022-12-29T18:08:35.807Z,7.15
2022-12-29T18:11:02.919Z,7.15
2022-12-29T18:13:41.957Z,7.16
2022-12-29T18:16:13.643Z,7.16
2022-12-29T18:18:40.885Z,7.14
2022-12-29T18:21:16.859Z,7.13
2022-12-29T18:23:43.988Z,7.15
2022-12-29T18:26:28.031Z,7.21
2022-12-29T18:28:57.011Z,7.21
2022-12-29T18:31:34.644Z,7.10
2022-12-29T18:34:07.638Z,7.04
2022-12-29T18:36:34.846Z,7.01
2022-12-29T18:39:01.907Z,7.10
2022-12-29T18:41:32.364Z,6.95
2022-12-29T18:44:00.239Z,6.88
2022-12-29T18:46:27.723Z,6.89
2022-12-29T18:48:55.145Z,6.82
2022-12-29T18:51:25.973Z,6.77
2022-12-29T18:53:54.698Z,6.75
2022-12-29T18:56:23.248Z,6.77
2022-12-29T18:58:51.255Z,6.79
2022-12-29T19:01:23.778Z,6.80
2022-12-29T19:03:51.428Z,6.81
2022-12-29T19:06:19.736Z,6.79
2022-12-29T19:08:47.096Z,6.79
2022-12-29T19:11:14.151Z,6.79
2022-12-29T19:13:41.290Z,6.79
2022-12-29T19:16:17.329Z,6.80
2022-12-29T19:18:48.733Z,6.80
2022-12-29T19:21:22.107Z,6.82
2022-12-29T19:23:49.857Z,6.84
2022-12-29T19:26:31.798Z,6.87
2022-12-29T19:29:00.164Z,6.80
2022-12-29T19:31:27.514Z,6.77
2022-12-29T19:33:54.895Z,6.84
2022-12-29T19:36:22.964Z,6.87
2022-12-29T19:38:50.422Z,6.78
2022-12-29T19:41:17.641Z,6.78
2022-12-29T19:43:45.008Z,6.75
2022-12-29T19:46:16.875Z,6.76
2022-12-29T19:48:44.545Z,6.75
2022-12-29T19:51:15.787Z,6.73
2022-12-29T19:53:44.365Z,6.72
2022-12-29T19:56:12.128Z,6.71
2022-12-29T19:58:45.198Z,6.73
2022-12-29T20:01:20.218Z,6.87
2022-12-29T20:03:47.699Z,6.81
2022-12-29T20:06:18.112Z,6.76
2022-12-29T20:08:45.893Z,6.80
2022-12-29T20:11:16.524Z,7.00
2022-12-29T20:13:43.946Z,6.87
2022-12-29T20:16:17.490Z,6.69
2022-12-29T20:18:45.051Z,6.60
2022-12-29T20:21:17.768Z,6.60
2022-12-29T20:23:45.764Z,6.49
2022-12-29T20:26:18.852Z,6.44
2022-12-29T20:28:46.261Z,6.46
2022-12-29T20:31:24.006Z,6.80
2022-12-29T20:33:51.362Z,6.64
2022-12-29T20:36:28.853Z,6.46
2022-12-29T20:38:57.993Z,6.53
2022-12-29T20:41:26.546Z,6.54
2022-12-29T20:43:54.564Z,6.37
2022-12-29T20:46:26.358Z,6.47
2022-12-29T20:48:59.108Z,6.32
2022-12-29T20:51:27.028Z,6.24
2022-12-29T20:53:54.450Z,6.22
2022-12-29T20:56:24.429Z,6.18
2022-12-29T20:59:25.680Z,6.12
2022-12-29T21:01:40.342Z,6.08
2022-12-29T21:04:08.216Z,6.08
2022-12-29T21:06:35.963Z,6.09
2022-12-29T21:09:03.513Z,6.14
2022-12-29T21:11:30.790Z,6.13
2022-12-29T21:14:01.189Z,6.16
2022-12-29T21:16:28.961Z,6.23
2022-12-29T21:18:56.182Z,6.25
2022-12-29T21:21:25.500Z,6.25
2022-12-29T21:23:53.015Z,6.26
2022-12-29T21:26:23.425Z,6.29
2022-12-29T21:28:51.507Z,6.33
2022-12-29T21:31:37.235Z,6.34
2022-12-29T21:34:06.377Z,6.33
2022-12-29T21:36:34.232Z,6.30
2022-12-29T21:39:03.722Z,6.31
2022-12-29T21:41:30.896Z,6.34
2022-12-29T21:44:17.108Z,6.36
2022-12-29T21:46:50.025Z,6.38
2022-12-29T21:49:17.144Z,6.39
2022-12-29T21:51:50.194Z,6.39
2022-12-29T21:54:38.364Z,6.39
2022-12-29T21:57:06.104Z,6.39
2022-12-29T21:59:52.060Z,6.36
2022-12-29T22:02:43.749Z,6.37
2022-12-29T22:05:32.408Z,6.41
2022-12-29T22:08:18.346Z,6.39
2022-12-29T22:11:06.233Z,6.42
2022-12-29T22:13:39.086Z,6.43
2022-12-29T22:16:08.899Z,6.46
2022-12-29T22:18:36.884Z,6.45
2022-12-29T22:21:08.838Z,6.50
2022-12-29T22:23:37.938Z,6.55
2022-12-29T22:26:10.229Z,6.56
2022-12-29T22:28:39.037Z,6.53
2022-12-29T22:31:07.636Z,6.47
2022-12-29T22:33:34.704Z,6.46
2022-12-29T22:36:01.683Z,6.42
2022-12-29T22:38:28.665Z,6.42
2022-12-29T22:41:00.702Z,6.43
2022-12-29T22:43:30.135Z,6.45
2022-12-29T22:46:07.781Z,6.50
2022-12-29T22:48:36.364Z,6.52
2022-12-29T22:51:03.966Z,6.52
2022-12-29T22:53:31.310Z,6.49
2022-12-29T22:56:06.811Z,6.47
2022-12-29T22:58:34.058Z,6.40
2022-12-29T23:01:01.426Z,6.34
2022-12-29T23:03:29.249Z,6.33
2022-12-29T23:06:05.352Z,6.27
2022-12-29T23:08:35.731Z,6.21
2022-12-29T23:11:03.587Z,6.16
2022-12-29T23:13:30.969Z,6.11
2022-12-29T23:15:58.125Z,6.09
2022-12-29T23:18:25.461Z,6.07
2022-12-29T23:20:52.454Z,6.06
2022-12-29T23:23:46.507Z,6.07
2022-12-29T23:26:20.513Z,6.03
2022-12-29T23:28:47.853Z,6.06
2022-12-29T23:31:15.967Z,6.06
2022-12-29T23:33:43.201Z,6.07
2022-12-29T23:36:10.579Z,6.01
2022-12-29T23:38:37.601Z,5.98
2022-12-29T23:41:04.973Z,5.96
2022-12-29T23:43:31.961Z,5.98
2022-12-29T23:45:58.898Z,6.05
2022-12-29T23:48:25.919Z,6.11
2022-12-29T23:50:52.908Z,6.15
2022-12-29T23:53:19.910Z,6.14
2022-12-29T23:55:53.849Z,6.13
2022-12-29T23:58:21.029Z,6.16
